Terminal Aerodrome Forecast
Issued by NWS St Louis, MO

Home | Current Version | Previous Version | Text Only | Print | Product List | Glossary On
Versions: 1 2 3 4 5 6 7 8 9 10 11 12 13 14 15 16 17 18 19 20 21 22 23 24 25 26 27 28 29 30 31 32 33
000
FTUS43 KLSX 270531
TAFSTL
TAF
KSTL 270531Z 2706/2812 14006KT P6SM SCT009 BKN120
      TEMPO 2706/2710 BKN009
     FM271000 11008KT 3SM -SHRA VCTS OVC008CB
     FM271600 13010G17KT P6SM BKN035
     FM272000 17014KT 4SM TSRA BKN040CB
     FM280000 20005KT P6SM SCT110=

USA.gov is the U.S. government's official web portal to all federal, state and local government web resources and services.